Time;durP1;ratioP1;P1;durP2;ratioP2;P2;SDS_P1;SDS_P2;PMS_P1;PMS_P2;Temp;Humidity;BMP_temperature;BMP_pressure;BME280_temperature;BME280_humidity;BME280_pressure;Samples;Min_cycle;Max_cycle;Signal;HPM_P1;HPM_P2
2021/10/07 00:00:37;;;;;;;3.72;0.90;;;;;;;;;;4859549;29;20097;-73
2021/10/07 00:03:05;;;;;;;1.42;0.82;;;;;;;;;;4858781;29;20049;-74
2021/10/07 00:05:32;;;;;;;1.73;0.80;;;;;;;;;;4859102;29;20048;-73
2021/10/07 00:07:59;;;;;;;1.70;0.70;;;;;;;;;;4842691;29;20045;-73
2021/10/07 00:10:28;;;;;;;2.20;0.88;;;;;;;;;;4858762;29;20539;-73
2021/10/07 00:12:55;;;;;;;1.75;0.70;;;;;;;;;;4834200;29;20046;-73
2021/10/07 00:15:23;;;;;;;2.20;0.60;;;;;;;;;;4841965;29;20073;-73
2021/10/07 00:17:50;;;;;;;2.75;0.60;;;;;;;;;;4842661;29;20061;-73
2021/10/07 00:20:18;;;;;;;1.65;0.70;;;;;;;;;;4871714;29;20492;-73
2021/10/07 00:22:47;;;;;;;1.88;0.70;;;;;;;;;;4844764;29;20072;-73
2021/10/07 00:25:15;;;;;;;1.50;0.70;;;;;;;;;;4877649;29;20076;-73
2021/10/07 00:27:43;;;;;;;3.38;0.70;;;;;;;;;;4876849;29;20101;-73
2021/10/07 00:30:17;;;;;;;3.33;1.20;;;;;;;;;;4860144;29;20041;-73
2021/10/07 00:33:08;;;;;;;2.47;0.80;;;;;;;;;;4872287;29;20041;-73
2021/10/07 00:40:49;;;;;;;1.25;0.50;;;;;;;;;;4873032;29;20045;-73
2021/10/07 00:43:17;;;;;;;1.80;0.65;;;;;;;;;;4874567;29;20132;-73
2021/10/07 00:45:54;;;;;;;2.00;0.70;;;;;;;;;;4868208;29;20443;-74
2021/10/07 00:48:22;;;;;;;1.15;0.60;;;;;;;;;;4874159;29;20051;-74
2021/10/07 00:50:50;;;;;;;1.45;0.63;;;;;;;;;;4877026;29;20415;-74
2021/10/07 00:53:18;;;;;;;1.35;0.60;;;;;;;;;;4860069;29;20049;-73
2021/10/07 00:55:47;;;;;;;2.53;0.77;;;;;;;;;;4877108;29;20191;-73
2021/10/07 00:58:15;;;;;;;1.40;0.52;;;;;;;;;;4876703;29;20045;-73
2021/10/07 01:00:43;;;;;;;1.42;0.70;;;;;;;;;;4860330;29;20132;-74
2021/10/07 01:03:15;;;;;;;1.10;0.50;;;;;;;;;;4842825;29;20110;-73
2021/10/07 01:05:42;;;;;;;1.98;0.52;;;;;;;;;;4876961;29;20450;-73
2021/10/07 01:08:10;;;;;;;1.55;0.55;;;;;;;;;;4875723;29;20076;-74
2021/10/07 01:10:37;;;;;;;1.83;0.63;;;;;;;;;;4848918;29;20395;-73
2021/10/07 01:13:06;;;;;;;1.33;0.55;;;;;;;;;;4863288;29;20473;-73
2021/10/07 01:15:33;;;;;;;0.90;0.55;;;;;;;;;;4863637;29;20066;-74
2021/10/07 01:18:01;;;;;;;1.58;0.57;;;;;;;;;;4863776;29;20140;-74
2021/10/07 01:20:28;;;;;;;1.40;0.90;;;;;;;;;;4880044;29;20538;-74
2021/10/07 01:22:56;;;;;;;0.80;0.40;;;;;;;;;;4862657;29;20078;-74
2021/10/07 01:25:23;;;;;;;1.33;0.52;;;;;;;;;;4880339;29;20056;-74
2021/10/07 01:27:57;;;;;;;2.05;0.60;;;;;;;;;;4863029;29;20043;-73
2021/10/07 01:30:25;;;;;;;1.15;0.55;;;;;;;;;;4854721;29;20053;-74
2021/10/07 01:32:56;;;;;;;1.42;0.70;;;;;;;;;;4862930;29;20052;-74
2021/10/07 01:35:23;;;;;;;1.77;0.73;;;;;;;;;;4860429;29;20152;-74
2021/10/07 01:37:51;;;;;;;1.20;0.60;;;;;;;;;;4877930;29;20450;-74
2021/10/07 01:40:19;;;;;;;1.80;0.90;;;;;;;;;;4877044;29;20041;-74
2021/10/07 01:42:47;;;;;;;3.88;0.65;;;;;;;;;;4869778;29;20049;-74
2021/10/07 01:45:17;;;;;;;1.95;0.82;;;;;;;;;;4873738;29;20048;-74
2021/10/07 01:47:45;;;;;;;1.55;0.60;;;;;;;;;;4878531;29;20037;-74
2021/10/07 01:50:13;;;;;;;1.25;0.60;;;;;;;;;;4859190;29;20045;-74
2021/10/07 01:52:40;;;;;;;1.73;0.80;;;;;;;;;;4857487;29;20124;-73
2021/10/07 01:55:09;;;;;;;3.08;0.60;;;;;;;;;;4868619;29;20049;-77
2021/10/07 01:57:36;;;;;;;1.55;0.60;;;;;;;;;;4868648;29;20471;-77
2021/10/07 02:00:06;;;;;;;1.60;0.50;;;;;;;;;;4877187;29;20053;-73
2021/10/07 02:02:37;;;;;;;1.77;0.60;;;;;;;;;;4868523;29;20078;-74
2021/10/07 02:05:05;;;;;;;1.45;0.65;;;;;;;;;;4865347;29;20055;-74
2021/10/07 02:07:32;;;;;;;1.05;0.50;;;;;;;;;;4875802;29;20128;-73
2021/10/07 02:10:00;;;;;;;1.95;0.70;;;;;;;;;;4869634;29;20124;-74
2021/10/07 02:12:28;;;;;;;1.20;0.60;;;;;;;;;;4863244;29;20082;-74
2021/10/07 02:14:55;;;;;;;2.50;0.60;;;;;;;;;;4862689;29;20489;-74
2021/10/07 02:17:22;;;;;;;0.95;0.50;;;;;;;;;;4847537;29;20109;-73
2021/10/07 02:19:50;;;;;;;2.53;0.80;;;;;;;;;;4870995;29;20056;-74
2021/10/07 02:22:18;;;;;;;1.50;0.63;;;;;;;;;;4880207;29;20540;-74
2021/10/07 02:24:45;;;;;;;1.33;0.60;;;;;;;;;;4869787;29;20105;-74
2021/10/07 02:27:15;;;;;;;2.30;0.55;;;;;;;;;;4865584;29;20045;-73
2021/10/07 02:29:43;;;;;;;1.48;0.50;;;;;;;;;;4871585;29;20041;-74
2021/10/07 02:32:11;;;;;;;0.90;0.30;;;;;;;;;;4881506;29;20066;-73
2021/10/07 02:34:38;;;;;;;1.00;0.50;;;;;;;;;;4887025;29;20044;-73
2021/10/07 02:37:06;;;;;;;1.40;0.60;;;;;;;;;;4864365;29;20045;-74
2021/10/07 02:39:33;;;;;;;2.65;0.60;;;;;;;;;;4877332;29;20157;-74
2021/10/07 02:42:00;;;;;;;1.42;0.60;;;;;;;;;;4861252;29;20105;-74
2021/10/07 02:44:27;;;;;;;1.77;0.60;;;;;;;;;;4877998;29;20063;-74
2021/10/07 02:46:55;;;;;;;1.60;0.60;;;;;;;;;;4877508;29;20052;-73
2021/10/07 02:49:22;;;;;;;1.05;0.50;;;;;;;;;;4876466;29;20049;-73
2021/10/07 02:51:50;;;;;;;3.00;0.70;;;;;;;;;;4875726;29;20061;-73
2021/10/07 02:54:17;;;;;;;1.58;0.73;;;;;;;;;;4877874;29;20471;-74
2021/10/07 02:56:44;;;;;;;2.35;0.88;;;;;;;;;;4878615;29;20081;-73
2021/10/07 02:59:12;;;;;;;1.95;0.90;;;;;;;;;;4878985;29;20053;-74
2021/10/07 03:01:40;;;;;;;1.95;0.70;;;;;;;;;;4861798;29;20517;-74
2021/10/07 03:04:07;;;;;;;1.50;0.77;;;;;;;;;;4878775;29;20068;-74
2021/10/07 03:06:35;;;;;;;1.90;0.73;;;;;;;;;;4877152;29;20084;-74
2021/10/07 03:09:02;;;;;;;3.05;0.57;;;;;;;;;;4878667;29;20036;-74
2021/10/07 03:11:30;;;;;;;2.40;0.50;;;;;;;;;;4860864;29;20057;-74
2021/10/07 03:13:57;;;;;;;1.33;0.50;;;;;;;;;;4874165;29;20101;-74
2021/10/07 03:16:25;;;;;;;1.38;0.60;;;;;;;;;;4874987;29;20049;-74
2021/10/07 03:18:52;;;;;;;4.90;1.08;;;;;;;;;;4861524;29;20088;-74
2021/10/07 03:21:20;;;;;;;2.33;0.50;;;;;;;;;;4878558;29;20067;-73
2021/10/07 03:23:49;;;;;;;1.27;0.52;;;;;;;;;;4876807;29;20858;-74
2021/10/07 03:26:17;;;;;;;0.70;0.38;;;;;;;;;;4861587;29;20511;-74
2021/10/07 03:28:45;;;;;;;2.75;0.52;;;;;;;;;;4861370;29;20040;-74
2021/10/07 03:31:13;;;;;;;3.50;0.68;;;;;;;;;;4860974;29;20097;-74
2021/10/07 03:33:40;;;;;;;2.08;0.60;;;;;;;;;;4864976;29;20529;-74
2021/10/07 03:36:07;;;;;;;1.95;0.60;;;;;;;;;;4860717;29;20049;-74
2021/10/07 03:38:35;;;;;;;1.05;0.50;;;;;;;;;;4861010;29;20506;-73
2021/10/07 03:41:03;;;;;;;2.13;0.70;;;;;;;;;;4876454;29;20398;-74
2021/10/07 03:43:31;;;;;;;1.05;0.50;;;;;;;;;;4877582;29;20041;-74
2021/10/07 03:45:58;;;;;;;1.58;0.60;;;;;;;;;;4857038;29;20093;-74
2021/10/07 03:48:26;;;;;;;1.00;0.50;;;;;;;;;;4858519;29;20051;-74
2021/10/07 03:50:53;;;;;;;1.30;0.47;;;;;;;;;;4877261;29;20037;-74
2021/10/07 03:53:22;;;;;;;1.20;0.50;;;;;;;;;;4860060;29;20041;-73
2021/10/07 03:55:49;;;;;;;1.20;0.40;;;;;;;;;;4883793;29;20045;-73
2021/10/07 03:58:17;;;;;;;0.55;0.30;;;;;;;;;;4879014;29;20041;-73
2021/10/07 04:00:44;;;;;;;0.90;0.32;;;;;;;;;;4877228;29;20141;-73
2021/10/07 04:03:12;;;;;;;1.10;0.52;;;;;;;;;;4844917;29;20463;-73
2021/10/07 04:05:39;;;;;;;0.90;0.38;;;;;;;;;;4861341;29;20148;-73
2021/10/07 04:08:07;;;;;;;1.08;0.50;;;;;;;;;;4875971;29;20045;-73
2021/10/07 04:10:35;;;;;;;0.73;0.30;;;;;;;;;;4860465;29;20041;-73
2021/10/07 04:13:02;;;;;;;1.05;0.47;;;;;;;;;;4860616;29;20115;-73
2021/10/07 04:15:29;;;;;;;1.48;0.60;;;;;;;;;;4861399;29;20557;-74
2021/10/07 04:17:57;;;;;;;0.93;0.30;;;;;;;;;;4845297;29;20072;-74
2021/10/07 04:20:25;;;;;;;2.35;0.45;;;;;;;;;;4877022;29;20068;-74
2021/10/07 04:22:52;;;;;;;1.40;0.50;;;;;;;;;;4859807;29;20068;-74
2021/10/07 04:25:20;;;;;;;0.82;0.30;;;;;;;;;;4877772;29;20080;-74
2021/10/07 04:27:52;;;;;;;0.65;0.35;;;;;;;;;;4859962;29;20089;-74
2021/10/07 04:30:20;;;;;;;0.90;0.40;;;;;;;;;;4859938;29;20120;-73
2021/10/07 04:32:47;;;;;;;1.98;0.57;;;;;;;;;;4875981;29;20041;-74
2021/10/07 04:35:16;;;;;;;1.70;0.68;;;;;;;;;;4861124;29;20080;-73
2021/10/07 04:37:44;;;;;;;1.58;0.52;;;;;;;;;;4876184;29;20037;-74
2021/10/07 04:40:12;;;;;;;2.65;0.90;;;;;;;;;;4845794;29;20064;-73
2021/10/07 04:42:39;;;;;;;1.20;0.63;;;;;;;;;;4876427;29;20391;-74
2021/10/07 04:45:09;;;;;;;0.70;0.50;;;;;;;;;;4868909;29;20041;-73
2021/10/07 04:47:37;;;;;;;7.88;0.75;;;;;;;;;;4849646;29;20790;-73
2021/10/07 04:50:06;;;;;;;2.65;0.40;;;;;;;;;;4880351;29;20478;-74
2021/10/07 04:52:33;;;;;;;1.90;0.25;;;;;;;;;;4881407;29;20371;-74
2021/10/07 04:55:01;;;;;;;3.00;0.25;;;;;;;;;;4880407;29;20446;-73
2021/10/07 04:57:29;;;;;;;0.95;0.38;;;;;;;;;;4864546;29;20064;-74
2021/10/07 04:59:56;;;;;;;1.80;0.40;;;;;;;;;;4880662;29;20055;-74
2021/10/07 05:02:24;;;;;;;1.70;0.38;;;;;;;;;;4879557;29;20140;-74
2021/10/07 05:04:51;;;;;;;2.53;0.43;;;;;;;;;;4879838;29;20049;-74
2021/10/07 05:07:19;;;;;;;1.25;0.45;;;;;;;;;;4880601;29;20061;-74
2021/10/07 05:09:46;;;;;;;0.93;0.43;;;;;;;;;;4864170;29;20484;-73
2021/10/07 05:12:14;;;;;;;0.85;0.30;;;;;;;;;;4854345;29;20045;-74
2021/10/07 05:14:41;;;;;;;1.10;0.40;;;;;;;;;;4880846;29;20045;-74
2021/10/07 05:17:08;;;;;;;0.70;0.30;;;;;;;;;;4880417;29;20072;-74
2021/10/07 05:19:35;;;;;;;0.80;0.32;;;;;;;;;;4848879;29;20061;-74
2021/10/07 05:22:03;;;;;;;0.68;0.30;;;;;;;;;;4879970;29;20080;-74
2021/10/07 05:24:30;;;;;;;0.35;0.22;;;;;;;;;;4880946;29;20110;-74
2021/10/07 05:26:58;;;;;;;0.80;0.40;;;;;;;;;;4864797;29;20048;-74
2021/10/07 05:29:25;;;;;;;0.50;0.30;;;;;;;;;;4881183;29;20073;-74
2021/10/07 05:31:52;;;;;;;2.25;0.38;;;;;;;;;;4849589;29;20052;-74
2021/10/07 05:34:20;;;;;;;1.95;0.40;;;;;;;;;;4864631;29;20045;-74
2021/10/07 05:36:47;;;;;;;0.80;0.30;;;;;;;;;;4864118;29;20049;-74
2021/10/07 05:39:14;;;;;;;2.75;0.43;;;;;;;;;;4862961;29;20059;-75
2021/10/07 05:41:42;;;;;;;0.90;0.45;;;;;;;;;;4879768;29;20045;-74
2021/10/07 05:44:10;;;;;;;1.38;0.40;;;;;;;;;;4847514;29;20049;-75
2021/10/07 05:46:38;;;;;;;2.58;0.30;;;;;;;;;;4879428;29;20136;-75
2021/10/07 05:49:06;;;;;;;0.43;0.30;;;;;;;;;;4848275;29;20071;-75
2021/10/07 05:51:33;;;;;;;0.65;0.30;;;;;;;;;;4879319;29;20052;-75
2021/10/07 05:54:01;;;;;;;0.90;0.43;;;;;;;;;;4879788;29;20105;-75
2021/10/07 05:56:28;;;;;;;2.95;0.40;;;;;;;;;;4876411;29;20129;-75
2021/10/07 05:58:55;;;;;;;1.17;0.20;;;;;;;;;;4848357;29;20131;-74
2021/10/07 06:01:23;;;;;;;0.88;0.40;;;;;;;;;;4878485;29;20247;-75
2021/10/07 06:03:50;;;;;;;1.67;0.40;;;;;;;;;;4873424;29;20056;-75
2021/10/07 06:06:18;;;;;;;1.13;0.40;;;;;;;;;;4878309;29;20049;-76
2021/10/07 06:08:46;;;;;;;1.92;0.32;;;;;;;;;;4863042;29;20426;-74
2021/10/07 06:11:13;;;;;;;2.15;0.40;;;;;;;;;;4865016;29;20080;-75
2021/10/07 06:13:41;;;;;;;2.20;0.45;;;;;;;;;;4878758;29;20437;-74
2021/10/07 06:16:09;;;;;;;0.90;0.35;;;;;;;;;;4878482;29;20513;-74
2021/10/07 06:18:36;;;;;;;2.10;0.30;;;;;;;;;;4866482;29;20037;-75
2021/10/07 06:21:07;;;;;;;5.70;0.40;;;;;;;;;;4888349;29;20057;-76
2021/10/07 06:23:54;;;;;;;1.20;0.40;;;;;;;;;;4866263;29;20537;-75
2021/10/07 06:26:36;;;;;;;0.55;0.30;;;;;;;;;;4879187;29;20041;-74
2021/10/07 06:29:03;;;;;;;3.65;0.38;;;;;;;;;;4879066;29;20120;-76
2021/10/07 06:31:31;;;;;;;1.35;0.47;;;;;;;;;;4863102;29;20045;-77
2021/10/07 06:33:59;;;;;;;3.97;0.45;;;;;;;;;;4863202;29;20050;-76
2021/10/07 06:36:26;;;;;;;2.58;0.80;;;;;;;;;;4867565;29;20117;-76
2021/10/07 06:38:53;;;;;;;1.33;0.60;;;;;;;;;;4866421;29;20072;-74
2021/10/07 06:41:22;;;;;;;1.67;0.65;;;;;;;;;;4863075;29;20433;-75
2021/10/07 06:43:50;;;;;;;1.98;0.47;;;;;;;;;;4886229;29;20105;-75
2021/10/07 06:46:17;;;;;;;4.78;0.50;;;;;;;;;;4865290;29;20047;-74
2021/10/07 06:48:44;;;;;;;1.33;0.63;;;;;;;;;;4846865;29;20052;-74
2021/10/07 06:51:14;;;;;;;1.10;0.50;;;;;;;;;;4879277;29;20064;-74
2021/10/07 06:53:41;;;;;;;1.00;0.50;;;;;;;;;;4860733;29;20037;-74
2021/10/07 06:56:09;;;;;;;1.35;0.45;;;;;;;;;;4879163;29;20071;-74
2021/10/07 06:58:36;;;;;;;1.10;0.50;;;;;;;;;;4861470;29;20771;-74
2021/10/07 07:01:03;;;;;;;5.00;0.80;;;;;;;;;;4875748;29;20486;-74
2021/10/07 07:03:31;;;;;;;1.48;0.47;;;;;;;;;;4848872;29;20391;-75
2021/10/07 07:05:58;;;;;;;1.25;0.57;;;;;;;;;;4853921;29;20216;-77
2021/10/07 07:08:26;;;;;;;0.85;0.40;;;;;;;;;;4876148;29;20470;-77
2021/10/07 07:10:53;;;;;;;3.78;0.60;;;;;;;;;;4863039;29;20093;-76
2021/10/07 07:13:20;;;;;;;4.47;0.60;;;;;;;;;;4879111;29;20044;-76
2021/10/07 07:15:48;;;;;;;11.77;0.90;;;;;;;;;;4863402;29;20116;-77
2021/10/07 07:18:15;;;;;;;3.92;1.00;;;;;;;;;;4862273;29;20045;-78
2021/10/07 07:20:43;;;;;;;2.05;0.70;;;;;;;;;;4862781;29;20056;-78
2021/10/07 07:23:10;;;;;;;1.63;0.80;;;;;;;;;;4878117;29;20049;-78
2021/10/07 07:25:38;;;;;;;1.45;0.68;;;;;;;;;;4877775;29;20072;-76
2021/10/07 07:28:09;;;;;;;1.75;0.68;;;;;;;;;;4868796;29;20125;-77
2021/10/07 07:30:37;;;;;;;2.85;0.82;;;;;;;;;;4861695;29;20481;-77
2021/10/07 07:33:05;;;;;;;1.92;0.75;;;;;;;;;;4846489;29;20049;-76
2021/10/07 07:35:33;;;;;;;1.27;0.47;;;;;;;;;;4847376;29;20066;-77
2021/10/07 07:38:03;;;;;;;1.33;0.52;;;;;;;;;;4862050;29;20049;-74
2021/10/07 07:40:32;;;;;;;1.30;0.52;;;;;;;;;;4879135;29;20037;-77
2021/10/07 07:42:59;;;;;;;1.08;0.57;;;;;;;;;;4878637;29;20037;-76
2021/10/07 07:45:27;;;;;;;1.13;0.50;;;;;;;;;;4862763;29;20044;-77
2021/10/07 07:47:56;;;;;;;2.63;0.60;;;;;;;;;;4879268;29;20116;-76
2021/10/07 07:50:25;;;;;;;1.70;0.80;;;;;;;;;;4847049;29;20037;-76
2021/10/07 07:52:53;;;;;;;1.42;0.65;;;;;;;;;;4862428;29;20411;-76
2021/10/07 07:55:22;;;;;;;2.75;0.77;;;;;;;;;;4877407;29;20057;-76
2021/10/07 07:57:50;;;;;;;1.77;0.85;;;;;;;;;;4862593;29;20095;-77
2021/10/07 08:00:17;;;;;;;1.70;0.90;;;;;;;;;;4862630;29;20093;-77
2021/10/07 08:02:45;;;;;;;3.75;0.98;;;;;;;;;;4862211;29;20124;-78
2021/10/07 08:05:14;;;;;;;2.70;1.20;;;;;;;;;;4864700;29;20053;-78
2021/10/07 08:07:42;;;;;;;2.33;0.98;;;;;;;;;;4877068;29;20037;-77
2021/10/07 08:10:10;;;;;;;2.47;1.10;;;;;;;;;;4875558;29;20140;-77
2021/10/07 08:12:37;;;;;;;1.90;0.75;;;;;;;;;;4883010;29;20044;-78
2021/10/07 08:15:06;;;;;;;2.60;0.85;;;;;;;;;;4868061;29;20056;-78
2021/10/07 08:17:34;;;;;;;2.13;0.90;;;;;;;;;;4846305;29;20052;-78
2021/10/07 08:20:01;;;;;;;2.00;0.90;;;;;;;;;;4862395;29;20087;-77
2021/10/07 08:22:29;;;;;;;3.80;1.13;;;;;;;;;;4846995;29;20049;-78
2021/10/07 08:24:56;;;;;;;7.35;1.88;;;;;;;;;;4861830;29;20053;-78
2021/10/07 08:27:26;;;;;;;5.53;1.67;;;;;;;;;;4861408;29;20101;-79
2021/10/07 08:29:54;;;;;;;3.05;1.30;;;;;;;;;;4879888;29;20033;-78
2021/10/07 08:32:22;;;;;;;3.22;1.42;;;;;;;;;;4869384;29;20095;-78
2021/10/07 08:34:49;;;;;;;4.85;1.20;;;;;;;;;;4861210;29;20554;-78
2021/10/07 08:37:17;;;;;;;3.90;1.75;;;;;;;;;;4846364;29;20060;-78
2021/10/07 08:39:44;;;;;;;2.78;1.48;;;;;;;;;;4846679;29;20143;-76
2021/10/07 08:42:11;;;;;;;6.57;2.55;;;;;;;;;;4861351;29;20049;-76
2021/10/07 08:44:38;;;;;;;8.57;3.10;;;;;;;;;;4878071;29;20093;-77
2021/10/07 08:47:06;;;;;;;4.03;2.03;;;;;;;;;;4867568;29;20049;-79
2021/10/07 08:49:38;;;;;;;6.45;2.45;;;;;;;;;;4858279;29;20121;-78
2021/10/07 08:52:06;;;;;;;4.63;2.63;;;;;;;;;;4869800;29;20056;-79
2021/10/07 08:54:34;;;;;;;5.68;3.00;;;;;;;;;;4854960;29;20088;-78
2021/10/07 08:57:02;;;;;;;3.67;1.92;;;;;;;;;;4869539;29;20041;-78
2021/10/07 08:59:30;;;;;;;3.80;1.45;;;;;;;;;;4863317;29;20564;-78
2021/10/07 09:01:58;;;;;;;2.83;1.40;;;;;;;;;;4863220;29;20052;-78
2021/10/07 09:04:30;;;;;;;2.85;1.17;;;;;;;;;;4868789;29;20410;-78
2021/10/07 09:06:59;;;;;;;2.78;1.35;;;;;;;;;;4864764;29;20052;-78
2021/10/07 09:09:27;;;;;;;3.33;1.48;;;;;;;;;;4872679;29;20382;-78
2021/10/07 09:11:56;;;;;;;5.40;2.28;;;;;;;;;;4859352;29;21660;-78
2021/10/07 09:14:25;;;;;;;4.13;1.67;;;;;;;;;;4874961;29;20052;-78
2021/10/07 09:16:56;;;;;;;3.75;1.58;;;;;;;;;;4866908;29;20041;-78
2021/10/07 09:19:25;;;;;;;3.75;1.60;;;;;;;;;;4853018;29;20081;-78
2021/10/07 09:21:55;;;;;;;4.70;1.58;;;;;;;;;;4867234;29;20072;-79
2021/10/07 09:24:37;;;;;;;5.03;1.88;;;;;;;;;;4860323;29;20048;-78
2021/10/07 09:27:10;;;;;;;3.92;1.52;;;;;;;;;;4863055;29;20049;-78
2021/10/07 09:29:38;;;;;;;4.80;1.60;;;;;;;;;;4878918;29;20053;-77
2021/10/07 09:32:06;;;;;;;4.53;1.75;;;;;;;;;;4861833;29;20389;-77
2021/10/07 09:34:37;;;;;;;6.30;1.95;;;;;;;;;;4874546;29;20110;-76
2021/10/07 09:37:25;;;;;;;5.60;2.22;;;;;;;;;;4879558;29;20538;-79
2021/10/07 09:39:54;;;;;;;5.88;2.45;;;;;;;;;;4881155;29;20057;-77
2021/10/07 09:42:23;;;;;;;5.57;2.03;;;;;;;;;;4865052;29;20048;-78
2021/10/07 09:45:17;;;;;;;5.50;2.30;;;;;;;;;;4854501;29;20128;-78
2021/10/07 09:47:46;;;;;;;5.20;2.15;;;;;;;;;;4844177;29;20129;-78
2021/10/07 09:50:24;;;;;;;7.90;2.40;;;;;;;;;;4860590;29;20069;-78
2021/10/07 09:53:02;;;;;;;4.50;1.80;;;;;;;;;;4877285;29;20053;-79
2021/10/07 09:55:33;;;;;;;7.28;2.67;;;;;;;;;;4852413;29;20042;-79
2021/10/07 09:58:01;;;;;;;6.38;2.22;;;;;;;;;;4864626;29;20106;-78
2021/10/07 10:00:30;;;;;;;8.98;3.30;;;;;;;;;;4881225;29;20041;-78
2021/10/07 10:02:58;;;;;;;7.90;2.53;;;;;;;;;;4881199;29;20401;-80
2021/10/07 10:05:28;;;;;;;8.30;3.10;;;;;;;;;;4865284;29;20105;-78
2021/10/07 10:07:55;;;;;;;9.05;3.83;;;;;;;;;;4882267;29;20083;-78
2021/10/07 10:10:23;;;;;;;11.90;4.90;;;;;;;;;;4863604;29;20052;-75
2021/10/07 10:12:50;;;;;;;11.95;4.80;;;;;;;;;;4880494;29;20045;-76
2021/10/07 10:15:18;;;;;;;11.10;5.28;;;;;;;;;;4847239;29;20065;-77
2021/10/07 10:17:45;;;;;;;13.43;5.47;;;;;;;;;;4863401;29;20396;-77
2021/10/07 10:20:19;;;;;;;12.07;5.18;;;;;;;;;;4861398;29;20060;-78
2021/10/07 10:22:47;;;;;;;10.40;4.55;;;;;;;;;;4880433;29;20049;-78
2021/10/07 10:25:15;;;;;;;13.95;6.75;;;;;;;;;;4871798;29;20069;-77
2021/10/07 10:27:49;;;;;;;10.18;4.78;;;;;;;;;;4873168;29;20081;-76
2021/10/07 10:30:27;;;;;;;10.82;4.80;;;;;;;;;;4874964;29;20129;-76
2021/10/07 10:32:56;;;;;;;14.23;5.72;;;;;;;;;;4874309;29;20065;-74
2021/10/07 10:35:31;;;;;;;9.70;5.03;;;;;;;;;;4872262;29;20061;-75
2021/10/07 10:37:59;;;;;;;11.90;5.70;;;;;;;;;;4878862;29;20125;-74
2021/10/07 10:40:27;;;;;;;11.32;4.60;;;;;;;;;;4862557;29;20056;-74
2021/10/07 10:43:13;;;;;;;10.70;4.47;;;;;;;;;;4879477;29;20053;-76
2021/10/07 10:45:47;;;;;;;9.45;3.63;;;;;;;;;;4862880;29;20049;-77
2021/10/07 10:48:33;;;;;;;9.25;3.72;;;;;;;;;;4871925;29;20498;-76
2021/10/07 10:51:01;;;;;;;8.23;4.00;;;;;;;;;;4872476;29;20124;-75
2021/10/07 10:53:29;;;;;;;12.57;4.90;;;;;;;;;;4879252;29;20121;-74
2021/10/07 10:55:57;;;;;;;10.90;5.13;;;;;;;;;;4847145;29;20037;-76
2021/10/07 10:58:24;;;;;;;12.18;5.10;;;;;;;;;;4878687;29;20048;-75
2021/10/07 11:00:51;;;;;;;10.13;4.13;;;;;;;;;;4871492;29;20477;-76
2021/10/07 11:03:23;;;;;;;11.63;4.40;;;;;;;;;;4856050;29;20100;-78
2021/10/07 11:05:55;;;;;;;11.77;5.05;;;;;;;;;;4874912;29;20033;-74
2021/10/07 11:08:23;;;;;;;9.85;4.15;;;;;;;;;;4875029;29;20049;-75
2021/10/07 11:11:05;;;;;;;11.70;4.60;;;;;;;;;;4878600;29;20044;-74
2021/10/07 11:13:33;;;;;;;10.98;5.10;;;;;;;;;;4850483;29;20058;-74
2021/10/07 11:16:04;;;;;;;9.32;4.38;;;;;;;;;;4887479;29;20033;-76
2021/10/07 11:18:33;;;;;;;12.07;5.68;;;;;;;;;;4864369;29;20073;-74
2021/10/07 11:21:02;;;;;;;14.65;6.80;;;;;;;;;;4865741;29;20057;-74
2021/10/07 11:23:32;;;;;;;11.38;5.25;;;;;;;;;;4858778;29;20467;-75
2021/10/07 11:26:01;;;;;;;10.95;5.95;;;;;;;;;;4849707;29;20045;-76
2021/10/07 11:28:32;;;;;;;9.13;4.13;;;;;;;;;;4862820;29;20108;-77
2021/10/07 11:31:08;;;;;;;10.90;4.55;;;;;;;;;;4882117;29;20446;-77
2021/10/07 11:33:38;;;;;;;10.50;4.97;;;;;;;;;;4869317;29;20041;-77
2021/10/07 11:36:06;;;;;;;11.70;5.30;;;;;;;;;;4879071;29;20041;-77
2021/10/07 11:38:36;;;;;;;10.25;5.13;;;;;;;;;;4851920;29;20073;-77
2021/10/07 11:41:04;;;;;;;9.57;4.70;;;;;;;;;;4890807;29;20411;-78
2021/10/07 11:43:33;;;;;;;9.25;4.57;;;;;;;;;;4862987;29;20477;-76
2021/10/07 11:46:02;;;;;;;9.02;3.78;;;;;;;;;;4878808;29;20505;-77
2021/10/07 11:48:29;;;;;;;9.93;4.78;;;;;;;;;;4879424;29;20037;-77
2021/10/07 11:50:59;;;;;;;12.05;5.22;;;;;;;;;;4878800;29;20760;-78
2021/10/07 11:53:33;;;;;;;11.60;5.03;;;;;;;;;;4872873;29;20042;-78
2021/10/07 11:56:02;;;;;;;13.15;6.68;;;;;;;;;;4874964;29;20068;-79
2021/10/07 11:58:30;;;;;;;12.48;6.50;;;;;;;;;;4862642;29;20047;-79
2021/10/07 12:00:58;;;;;;;10.57;5.55;;;;;;;;;;4878812;29;20127;-79
2021/10/07 12:03:30;;;;;;;10.52;5.50;;;;;;;;;;4863173;29;20459;-77
2021/10/07 12:05:59;;;;;;;9.68;5.43;;;;;;;;;;4880288;29;20080;-80
2021/10/07 12:08:36;;;;;;;12.48;6.18;;;;;;;;;;4861910;29;20041;-79
2021/10/07 12:11:10;;;;;;;9.48;5.18;;;;;;;;;;4863728;29;20571;-79
2021/10/07 12:13:41;;;;;;;8.88;4.72;;;;;;;;;;4848120;29;20084;-78
2021/10/07 12:16:14;;;;;;;9.43;4.53;;;;;;;;;;4878585;29;20113;-78
2021/10/07 12:18:42;;;;;;;9.63;4.95;;;;;;;;;;4846830;29;20072;-79
2021/10/07 12:21:17;;;;;;;10.77;6.00;;;;;;;;;;4859231;29;20054;-78
2021/10/07 12:23:47;;;;;;;10.52;5.72;;;;;;;;;;4855808;29;20050;-81
2021/10/07 12:26:23;;;;;;;8.88;4.80;;;;;;;;;;4872517;29;20550;-79
2021/10/07 12:28:51;;;;;;;9.75;5.38;;;;;;;;;;4858890;29;20046;-79
2021/10/07 12:31:26;;;;;;;9.82;5.03;;;;;;;;;;4847327;29;20093;-79
2021/10/07 12:33:55;;;;;;;10.10;5.07;;;;;;;;;;4864449;29;20110;-79
2021/10/07 12:36:23;;;;;;;8.80;4.65;;;;;;;;;;4857474;29;20105;-80
2021/10/07 12:38:52;;;;;;;7.20;3.80;;;;;;;;;;4860621;29;20049;-79
2021/10/07 12:41:31;;;;;;;8.18;4.25;;;;;;;;;;4858653;29;20053;-79
2021/10/07 12:43:59;;;;;;;7.05;3.53;;;;;;;;;;4859352;29;20049;-80
2021/10/07 12:46:27;;;;;;;10.35;5.20;;;;;;;;;;4860354;29;20554;-79
2021/10/07 12:48:58;;;;;;;8.05;4.18;;;;;;;;;;4859339;29;20037;-79
2021/10/07 12:51:28;;;;;;;12.18;6.13;;;;;;;;;;4860246;29;20080;-79
2021/10/07 12:53:55;;;;;;;9.23;5.10;;;;;;;;;;4860130;29;20055;-79
2021/10/07 12:56:25;;;;;;;9.68;4.85;;;;;;;;;;4842945;29;20137;-80
2021/10/07 12:58:57;;;;;;;8.10;4.38;;;;;;;;;;4842540;29;20061;-80
2021/10/07 13:01:25;;;;;;;;;;;;;;;;;;4859182;29;20121;-80
2021/10/07 13:04:11;;;;;;;7.72;4.10;;;;;;;;;;4858404;29;19975;-80
2021/10/07 13:06:38;;;;;;;6.35;3.30;;;;;;;;;;4863518;29;20045;-79
2021/10/07 13:09:06;;;;;;;7.93;4.18;;;;;;;;;;4859709;29;20140;-80
2021/10/07 13:11:34;;;;;;;7.90;3.75;;;;;;;;;;4873237;29;20106;-79
2021/10/07 13:14:01;;;;;;;8.77;4.68;;;;;;;;;;4860956;29;20585;-79
2021/10/07 13:16:29;;;;;;;6.90;3.97;;;;;;;;;;4863021;29;20443;-79
2021/10/07 13:18:56;;;;;;;7.20;3.90;;;;;;;;;;4846311;29;20066;-78
2021/10/07 13:21:27;;;;;;;7.57;3.70;;;;;;;;;;4883278;29;20069;-78
2021/10/07 13:23:55;;;;;;;7.90;3.95;;;;;;;;;;4893349;29;20477;-79
2021/10/07 13:26:22;;;;;;;10.18;4.55;;;;;;;;;;4865177;29;20067;-78
2021/10/07 13:28:50;;;;;;;7.85;3.78;;;;;;;;;;4873048;29;20037;-77
2021/10/07 13:31:18;;;;;;;7.75;4.03;;;;;;;;;;4881748;29;20089;-77
2021/10/07 13:33:45;;;;;;;6.78;3.55;;;;;;;;;;4868290;29;20036;-77
2021/10/07 13:36:12;;;;;;;6.60;3.53;;;;;;;;;;4846122;29;20052;-76
2021/10/07 13:38:40;;;;;;;5.93;3.38;;;;;;;;;;4861995;29;20041;-76
2021/10/07 13:41:07;;;;;;;6.72;2.95;;;;;;;;;;4854317;29;20060;-77
2021/10/07 13:43:37;;;;;;;5.82;3.50;;;;;;;;;;4882963;29;20093;-77
2021/10/07 13:46:06;;;;;;;7.97;3.15;;;;;;;;;;4858538;29;20547;-77
2021/10/07 13:48:33;;;;;;;5.97;3.35;;;;;;;;;;4876135;29;20045;-77
2021/10/07 13:51:00;;;;;;;5.57;2.95;;;;;;;;;;4880784;29;20045;-77
2021/10/07 13:53:28;;;;;;;7.18;4.20;;;;;;;;;;4864329;29;20480;-77
2021/10/07 13:55:55;;;;;;;8.32;4.35;;;;;;;;;;4849546;29;20044;-77
2021/10/07 13:58:23;;;;;;;7.85;3.88;;;;;;;;;;4864287;29;20124;-77
2021/10/07 14:00:50;;;;;;;8.02;4.00;;;;;;;;;;4866811;29;20108;-82
2021/10/07 14:03:18;;;;;;;6.05;3.45;;;;;;;;;;4865134;29;20132;-77
2021/10/07 14:05:45;;;;;;;7.40;3.85;;;;;;;;;;4880771;29;20164;-77
2021/10/07 14:08:13;;;;;;;6.20;3.60;;;;;;;;;;4880819;29;20076;-77
2021/10/07 14:10:42;;;;;;;6.55;3.40;;;;;;;;;;4877128;29;20573;-76
2021/10/07 14:13:09;;;;;;;7.28;3.63;;;;;;;;;;4864324;29;20131;-76
2021/10/07 14:15:36;;;;;;;6.43;3.35;;;;;;;;;;4847546;29;20045;-76
2021/10/07 14:18:04;;;;;;;5.95;2.72;;;;;;;;;;4854936;29;20116;-77
2021/10/07 14:20:32;;;;;;;6.18;3.22;;;;;;;;;;4875961;29;20080;-77
2021/10/07 14:22:59;;;;;;;5.82;2.97;;;;;;;;;;4864683;29;20120;-77
2021/10/07 14:25:27;;;;;;;5.30;2.85;;;;;;;;;;4880981;29;20065;-77
2021/10/07 14:27:54;;;;;;;6.15;3.03;;;;;;;;;;4845669;29;20376;-77
2021/10/07 14:30:22;;;;;;;6.15;3.08;;;;;;;;;;4874207;29;20129;-77
2021/10/07 14:32:49;;;;;;;5.45;2.75;;;;;;;;;;4872857;29;20045;-77
2021/10/07 14:35:17;;;;;;;5.93;3.28;;;;;;;;;;4880739;29;20454;-77
2021/10/07 14:37:44;;;;;;;6.55;3.60;;;;;;;;;;4863174;29;20078;-76
2021/10/07 14:40:12;;;;;;;8.05;3.92;;;;;;;;;;4869916;29;20782;-77
2021/10/07 14:42:39;;;;;;;5.93;3.38;;;;;;;;;;4876343;29;20101;-77
2021/10/07 14:45:08;;;;;;;5.75;3.40;;;;;;;;;;4879828;29;20045;-77
2021/10/07 14:47:36;;;;;;;6.35;3.42;;;;;;;;;;4849185;29;20573;-77
2021/10/07 14:50:04;;;;;;;6.10;3.30;;;;;;;;;;4880354;29;20072;-78
2021/10/07 14:52:31;;;;;;;8.85;3.67;;;;;;;;;;4880063;29;20037;-77
2021/10/07 14:54:59;;;;;;;7.40;3.95;;;;;;;;;;4881210;29;20049;-77